<?xml version="1.0" encoding="UTF-8" standalone="no" ?>
<gpx xmlns="http://www.topografix.com/GPX/1/1" xmlns:xsi="http://www.w3.org/2001/XMLSchema-instance" xsi:schemaLocation="http://www.topografix.com/GPX/1/1 http://www.topografix.com/GPX/1/1/gpx.xsd" version="1.1" creator="VisuGPX - https://www.visugpx.com">
  <metadata>
    <name>Lestong - La Rouviere</name>
    <desc><![CDATA[Sortie vers la Nécropole des Granges et passage à la Rouvières un hameau de Berrias.
]]></desc>
  </metadata>
  <trk>
    <name><![CDATA[2013-11-22-Lestong La Rouviere]]></name>
    <trkseg>
      <trkpt lat="44.39323" lon="4.19178">
        <ele>186</ele>
        <time>2013-11-22T13:03:32Z</time>
      </trkpt>
      <trkpt lat="44.39341" lon="4.19181">
        <ele>196</ele>
        <time>2013-11-22T13:08:07Z</time>
      </trkpt>
      <trkpt lat="44.39345" lon="4.19205">
        <ele>197</ele>
        <time>2013-11-22T13:08:47Z</time>
      </trkpt>
      <trkpt lat="44.39336" lon="4.19226">
        <ele>196</ele>
        <time>2013-11-22T13:09:10Z</time>
      </trkpt>
      <trkpt lat="44.39321" lon="4.19239">
        <ele>198</ele>
        <time>2013-11-22T13:09:34Z</time>
      </trkpt>
      <trkpt lat="44.39306" lon="4.19253">
        <ele>199</ele>
        <time>2013-11-22T13:09:56Z</time>
      </trkpt>
      <trkpt lat="44.39292" lon="4.19267">
        <ele>201</ele>
        <time>2013-11-22T13:10:14Z</time>
      </trkpt>
      <trkpt lat="44.39279" lon="4.19283">
        <ele>206</ele>
        <time>2013-11-22T13:10:39Z</time>
      </trkpt>
      <trkpt lat="44.39265" lon="4.193">
        <ele>207</ele>
        <time>2013-11-22T13:10:57Z</time>
      </trkpt>
      <trkpt lat="44.3925" lon="4.19313">
        <ele>204</ele>
        <time>2013-11-22T13:11:22Z</time>
      </trkpt>
      <trkpt lat="44.39237" lon="4.19329">
        <ele>200</ele>
        <time>2013-11-22T13:11:53Z</time>
      </trkpt>
      <trkpt lat="44.39227" lon="4.19349">
        <ele>195</ele>
        <time>2013-11-22T13:12:17Z</time>
      </trkpt>
      <trkpt lat="44.39214" lon="4.19367">
        <ele>193</ele>
        <time>2013-11-22T13:12:40Z</time>
      </trkpt>
      <trkpt lat="44.39203" lon="4.19385">
        <ele>191</ele>
        <time>2013-11-22T13:13:00Z</time>
      </trkpt>
      <trkpt lat="44.39191" lon="4.19402">
        <ele>189</ele>
        <time>2013-11-22T13:13:19Z</time>
      </trkpt>
      <trkpt lat="44.39179" lon="4.19419">
        <ele>188</ele>
        <time>2013-11-22T13:13:36Z</time>
      </trkpt>
      <trkpt lat="44.39168" lon="4.19439">
        <ele>189</ele>
        <time>2013-11-22T13:13:52Z</time>
      </trkpt>
      <trkpt lat="44.39171" lon="4.19464">
        <ele>188</ele>
        <time>2013-11-22T13:14:09Z</time>
      </trkpt>
      <trkpt lat="44.39172" lon="4.19488">
        <ele>186</ele>
        <time>2013-11-22T13:14:25Z</time>
      </trkpt>
      <trkpt lat="44.39172" lon="4.19512">
        <ele>184</ele>
        <time>2013-11-22T13:14:40Z</time>
      </trkpt>
      <trkpt lat="44.39169" lon="4.19536">
        <ele>182</ele>
        <time>2013-11-22T13:14:57Z</time>
      </trkpt>
      <trkpt lat="44.39164" lon="4.19559">
        <ele>181</ele>
        <time>2013-11-22T13:15:13Z</time>
      </trkpt>
      <trkpt lat="44.39156" lon="4.19581">
        <ele>181</ele>
        <time>2013-11-22T13:15:28Z</time>
      </trkpt>
      <trkpt lat="44.39149" lon="4.19604">
        <ele>179</ele>
        <time>2013-11-22T13:15:44Z</time>
      </trkpt>
      <trkpt lat="44.39155" lon="4.19627">
        <ele>178</ele>
        <time>2013-11-22T13:15:58Z</time>
      </trkpt>
      <trkpt lat="44.39145" lon="4.19648">
        <ele>180</ele>
        <time>2013-11-22T13:16:46Z</time>
      </trkpt>
      <trkpt lat="44.39131" lon="4.19663">
        <ele>182</ele>
        <time>2013-11-22T13:17:08Z</time>
      </trkpt>
      <trkpt lat="44.39116" lon="4.19676">
        <ele>185</ele>
        <time>2013-11-22T13:17:26Z</time>
      </trkpt>
      <trkpt lat="44.39102" lon="4.19691">
        <ele>188</ele>
        <time>2013-11-22T13:17:48Z</time>
      </trkpt>
      <trkpt lat="44.3909" lon="4.19709">
        <ele>192</ele>
        <time>2013-11-22T13:18:09Z</time>
      </trkpt>
      <trkpt lat="44.39077" lon="4.19724">
        <ele>192</ele>
        <time>2013-11-22T13:18:29Z</time>
      </trkpt>
      <trkpt lat="44.39065" lon="4.19741">
        <ele>192</ele>
        <time>2013-11-22T13:18:46Z</time>
      </trkpt>
      <trkpt lat="44.39052" lon="4.19758">
        <ele>190</ele>
        <time>2013-11-22T13:19:05Z</time>
      </trkpt>
      <trkpt lat="44.3904" lon="4.19776">
        <ele>189</ele>
        <time>2013-11-22T13:19:24Z</time>
      </trkpt>
      <trkpt lat="44.39027" lon="4.19793">
        <ele>188</ele>
        <time>2013-11-22T13:19:43Z</time>
      </trkpt>
      <trkpt lat="44.39015" lon="4.19811">
        <ele>187</ele>
        <time>2013-11-22T13:20:03Z</time>
      </trkpt>
      <trkpt lat="44.39002" lon="4.19828">
        <ele>187</ele>
        <time>2013-11-22T13:20:21Z</time>
      </trkpt>
      <trkpt lat="44.38988" lon="4.19842">
        <ele>187</ele>
        <time>2013-11-22T13:20:38Z</time>
      </trkpt>
      <trkpt lat="44.38976" lon="4.1986">
        <ele>185</ele>
        <time>2013-11-22T13:20:56Z</time>
      </trkpt>
      <trkpt lat="44.38966" lon="4.19881">
        <ele>184</ele>
        <time>2013-11-22T13:21:15Z</time>
      </trkpt>
      <trkpt lat="44.38966" lon="4.19905">
        <ele>182</ele>
        <time>2013-11-22T13:21:34Z</time>
      </trkpt>
      <trkpt lat="44.38978" lon="4.19922">
        <ele>177</ele>
        <time>2013-11-22T13:21:54Z</time>
      </trkpt>
      <trkpt lat="44.3899" lon="4.19941">
        <ele>175</ele>
        <time>2013-11-22T13:22:16Z</time>
      </trkpt>
      <trkpt lat="44.38996" lon="4.19963">
        <ele>172</ele>
        <time>2013-11-22T13:22:36Z</time>
      </trkpt>
      <trkpt lat="44.38998" lon="4.19988">
        <ele>173</ele>
        <time>2013-11-22T13:22:57Z</time>
      </trkpt>
      <trkpt lat="44.38992" lon="4.20011">
        <ele>173</ele>
        <time>2013-11-22T13:23:15Z</time>
      </trkpt>
      <trkpt lat="44.38987" lon="4.20034">
        <ele>173</ele>
        <time>2013-11-22T13:23:35Z</time>
      </trkpt>
      <trkpt lat="44.38985" lon="4.20059">
        <ele>173</ele>
        <time>2013-11-22T13:23:51Z</time>
      </trkpt>
      <trkpt lat="44.38979" lon="4.20081">
        <ele>172</ele>
        <time>2013-11-22T13:24:09Z</time>
      </trkpt>
      <trkpt lat="44.38974" lon="4.20103">
        <ele>172</ele>
        <time>2013-11-22T13:24:27Z</time>
      </trkpt>
      <trkpt lat="44.38976" lon="4.20128">
        <ele>170</ele>
        <time>2013-11-22T13:24:44Z</time>
      </trkpt>
      <trkpt lat="44.38981" lon="4.20152">
        <ele>171</ele>
        <time>2013-11-22T13:25:07Z</time>
      </trkpt>
      <trkpt lat="44.38983" lon="4.20177">
        <ele>170</ele>
        <time>2013-11-22T13:25:23Z</time>
      </trkpt>
      <trkpt lat="44.38982" lon="4.20202">
        <ele>168</ele>
        <time>2013-11-22T13:25:41Z</time>
      </trkpt>
      <trkpt lat="44.3898" lon="4.20227">
        <ele>168</ele>
        <time>2013-11-22T13:26:01Z</time>
      </trkpt>
      <trkpt lat="44.38969" lon="4.20245">
        <ele>165</ele>
        <time>2013-11-22T13:26:25Z</time>
      </trkpt>
      <trkpt lat="44.3896" lon="4.20267">
        <ele>164</ele>
        <time>2013-11-22T13:26:49Z</time>
      </trkpt>
      <trkpt lat="44.38955" lon="4.2029">
        <ele>167</ele>
        <time>2013-11-22T13:27:08Z</time>
      </trkpt>
      <trkpt lat="44.38954" lon="4.20315">
        <ele>168</ele>
        <time>2013-11-22T13:27:27Z</time>
      </trkpt>
      <trkpt lat="44.38955" lon="4.2034">
        <ele>167</ele>
        <time>2013-11-22T13:27:45Z</time>
      </trkpt>
      <trkpt lat="44.38957" lon="4.20364">
        <ele>167</ele>
        <time>2013-11-22T13:28:02Z</time>
      </trkpt>
      <trkpt lat="44.38958" lon="4.20388">
        <ele>167</ele>
        <time>2013-11-22T13:28:20Z</time>
      </trkpt>
      <trkpt lat="44.38956" lon="4.20412">
        <ele>166</ele>
        <time>2013-11-22T13:28:38Z</time>
      </trkpt>
      <trkpt lat="44.38953" lon="4.20437">
        <ele>165</ele>
        <time>2013-11-22T13:28:59Z</time>
      </trkpt>
      <trkpt lat="44.3895" lon="4.20461">
        <ele>165</ele>
        <time>2013-11-22T13:29:16Z</time>
      </trkpt>
      <trkpt lat="44.38945" lon="4.20485">
        <ele>161</ele>
        <time>2013-11-22T13:29:33Z</time>
      </trkpt>
      <trkpt lat="44.38937" lon="4.20506">
        <ele>162</ele>
        <time>2013-11-22T13:29:47Z</time>
      </trkpt>
      <trkpt lat="44.38929" lon="4.20528">
        <ele>160</ele>
        <time>2013-11-22T13:30:04Z</time>
      </trkpt>
      <trkpt lat="44.3892" lon="4.20549">
        <ele>159</ele>
        <time>2013-11-22T13:30:21Z</time>
      </trkpt>
      <trkpt lat="44.38911" lon="4.2057">
        <ele>163</ele>
        <time>2013-11-22T13:30:38Z</time>
      </trkpt>
      <trkpt lat="44.38899" lon="4.20588">
        <ele>160</ele>
        <time>2013-11-22T13:30:57Z</time>
      </trkpt>
      <trkpt lat="44.38884" lon="4.20601">
        <ele>158</ele>
        <time>2013-11-22T13:31:15Z</time>
      </trkpt>
      <trkpt lat="44.38868" lon="4.20611">
        <ele>155</ele>
        <time>2013-11-22T13:31:35Z</time>
      </trkpt>
      <trkpt lat="44.38852" lon="4.2062">
        <ele>157</ele>
        <time>2013-11-22T13:31:53Z</time>
      </trkpt>
      <trkpt lat="44.38837" lon="4.20632">
        <ele>157</ele>
        <time>2013-11-22T13:32:11Z</time>
      </trkpt>
      <trkpt lat="44.38822" lon="4.20647">
        <ele>157</ele>
        <time>2013-11-22T13:32:29Z</time>
      </trkpt>
      <trkpt lat="44.38809" lon="4.20661">
        <ele>158</ele>
        <time>2013-11-22T13:32:45Z</time>
      </trkpt>
      <trkpt lat="44.38793" lon="4.20674">
        <ele>155</ele>
        <time>2013-11-22T13:33:04Z</time>
      </trkpt>
      <trkpt lat="44.38778" lon="4.20686">
        <ele>153</ele>
        <time>2013-11-22T13:33:22Z</time>
      </trkpt>
      <trkpt lat="44.38764" lon="4.20701">
        <ele>153</ele>
        <time>2013-11-22T13:33:39Z</time>
      </trkpt>
      <trkpt lat="44.38752" lon="4.20718">
        <ele>155</ele>
        <time>2013-11-22T13:33:56Z</time>
      </trkpt>
      <trkpt lat="44.38741" lon="4.20737">
        <ele>156</ele>
        <time>2013-11-22T13:34:12Z</time>
      </trkpt>
      <trkpt lat="44.38731" lon="4.20757">
        <ele>155</ele>
        <time>2013-11-22T13:34:29Z</time>
      </trkpt>
      <trkpt lat="44.3872" lon="4.20776">
        <ele>154</ele>
        <time>2013-11-22T13:34:48Z</time>
      </trkpt>
      <trkpt lat="44.38707" lon="4.20794">
        <ele>150</ele>
        <time>2013-11-22T13:35:09Z</time>
      </trkpt>
      <trkpt lat="44.38697" lon="4.20813">
        <ele>148</ele>
        <time>2013-11-22T13:35:33Z</time>
      </trkpt>
      <trkpt lat="44.38683" lon="4.20829">
        <ele>148</ele>
        <time>2013-11-22T13:35:51Z</time>
      </trkpt>
      <trkpt lat="44.3867" lon="4.20843">
        <ele>148</ele>
        <time>2013-11-22T13:36:07Z</time>
      </trkpt>
      <trkpt lat="44.38657" lon="4.2086">
        <ele>143</ele>
        <time>2013-11-22T13:36:26Z</time>
      </trkpt>
      <trkpt lat="44.38641" lon="4.2087">
        <ele>147</ele>
        <time>2013-11-22T13:36:47Z</time>
      </trkpt>
      <trkpt lat="44.38625" lon="4.20881">
        <ele>143</ele>
        <time>2013-11-22T13:37:09Z</time>
      </trkpt>
      <trkpt lat="44.38611" lon="4.20897">
        <ele>139</ele>
        <time>2013-11-22T13:37:30Z</time>
      </trkpt>
      <trkpt lat="44.38595" lon="4.20901">
        <ele>139</ele>
        <time>2013-11-22T13:37:50Z</time>
      </trkpt>
      <trkpt lat="44.38578" lon="4.20904">
        <ele>140</ele>
        <time>2013-11-22T13:38:06Z</time>
      </trkpt>
      <trkpt lat="44.3856" lon="4.209">
        <ele>136</ele>
        <time>2013-11-22T13:38:25Z</time>
      </trkpt>
      <trkpt lat="44.38543" lon="4.20901">
        <ele>131</ele>
        <time>2013-11-22T13:38:43Z</time>
      </trkpt>
      <trkpt lat="44.38525" lon="4.20897">
        <ele>131</ele>
        <time>2013-11-22T13:39:03Z</time>
      </trkpt>
      <trkpt lat="44.38509" lon="4.20893">
        <ele>133</ele>
        <time>2013-11-22T13:39:20Z</time>
      </trkpt>
      <trkpt lat="44.38492" lon="4.20888">
        <ele>139</ele>
        <time>2013-11-22T13:39:33Z</time>
      </trkpt>
      <trkpt lat="44.38475" lon="4.20881">
        <ele>144</ele>
        <time>2013-11-22T13:39:49Z</time>
      </trkpt>
      <trkpt lat="44.38458" lon="4.20883">
        <ele>147</ele>
        <time>2013-11-22T13:40:14Z</time>
      </trkpt>
      <trkpt lat="44.38443" lon="4.20897">
        <ele>148</ele>
        <time>2013-11-22T13:40:32Z</time>
      </trkpt>
      <trkpt lat="44.3843" lon="4.20912">
        <ele>145</ele>
        <time>2013-11-22T13:40:57Z</time>
      </trkpt>
      <trkpt lat="44.38413" lon="4.20918">
        <ele>143</ele>
        <time>2013-11-22T13:41:18Z</time>
      </trkpt>
      <trkpt lat="44.38395" lon="4.20919">
        <ele>138</ele>
        <time>2013-11-22T13:41:38Z</time>
      </trkpt>
      <trkpt lat="44.38378" lon="4.20922">
        <ele>136</ele>
        <time>2013-11-22T13:41:56Z</time>
      </trkpt>
      <trkpt lat="44.38361" lon="4.20926">
        <ele>130</ele>
        <time>2013-11-22T13:42:15Z</time>
      </trkpt>
      <trkpt lat="44.38344" lon="4.20929">
        <ele>137</ele>
        <time>2013-11-22T13:44:40Z</time>
      </trkpt>
      <trkpt lat="44.38328" lon="4.20939">
        <ele>131</ele>
        <time>2013-11-22T13:44:58Z</time>
      </trkpt>
      <trkpt lat="44.3832" lon="4.2096">
        <ele>129</ele>
        <time>2013-11-22T13:45:13Z</time>
      </trkpt>
      <trkpt lat="44.38324" lon="4.20985">
        <ele>126</ele>
        <time>2013-11-22T13:45:30Z</time>
      </trkpt>
      <trkpt lat="44.38326" lon="4.21009">
        <ele>131</ele>
        <time>2013-11-22T13:45:43Z</time>
      </trkpt>
      <trkpt lat="44.38324" lon="4.21033">
        <ele>131</ele>
        <time>2013-11-22T13:45:58Z</time>
      </trkpt>
      <trkpt lat="44.38321" lon="4.21056">
        <ele>131</ele>
        <time>2013-11-22T13:46:10Z</time>
      </trkpt>
      <trkpt lat="44.38317" lon="4.2108">
        <ele>130</ele>
        <time>2013-11-22T13:46:23Z</time>
      </trkpt>
      <trkpt lat="44.38317" lon="4.21104">
        <ele>128</ele>
        <time>2013-11-22T13:46:39Z</time>
      </trkpt>
      <trkpt lat="44.38316" lon="4.21128">
        <ele>130</ele>
        <time>2013-11-22T13:46:52Z</time>
      </trkpt>
      <trkpt lat="44.38318" lon="4.21152">
        <ele>130</ele>
        <time>2013-11-22T13:47:06Z</time>
      </trkpt>
      <trkpt lat="44.38319" lon="4.21177">
        <ele>129</ele>
        <time>2013-11-22T13:47:20Z</time>
      </trkpt>
      <trkpt lat="44.38318" lon="4.21202">
        <ele>135</ele>
        <time>2013-11-22T13:47:44Z</time>
      </trkpt>
      <trkpt lat="44.38315" lon="4.21227">
        <ele>132</ele>
        <time>2013-11-22T13:50:53Z</time>
      </trkpt>
      <trkpt lat="44.3831" lon="4.2125">
        <ele>130</ele>
        <time>2013-11-22T13:51:09Z</time>
      </trkpt>
      <trkpt lat="44.38306" lon="4.21274">
        <ele>131</ele>
        <time>2013-11-22T13:51:47Z</time>
      </trkpt>
      <trkpt lat="44.38304" lon="4.21299">
        <ele>130</ele>
        <time>2013-11-22T13:52:19Z</time>
      </trkpt>
      <trkpt lat="44.38288" lon="4.2131">
        <ele>127</ele>
        <time>2013-11-22T13:53:00Z</time>
      </trkpt>
      <trkpt lat="44.38284" lon="4.21334">
        <ele>128</ele>
        <time>2013-11-22T13:53:29Z</time>
      </trkpt>
      <trkpt lat="44.38282" lon="4.21358">
        <ele>129</ele>
        <time>2013-11-22T13:53:56Z</time>
      </trkpt>
      <trkpt lat="44.38268" lon="4.21374">
        <ele>128</ele>
        <time>2013-11-22T13:54:20Z</time>
      </trkpt>
      <trkpt lat="44.38252" lon="4.21382">
        <ele>127</ele>
        <time>2013-11-22T13:54:38Z</time>
      </trkpt>
      <trkpt lat="44.38234" lon="4.21382">
        <ele>126</ele>
        <time>2013-11-22T13:55:00Z</time>
      </trkpt>
      <trkpt lat="44.38217" lon="4.21383">
        <ele>125</ele>
        <time>2013-11-22T13:55:20Z</time>
      </trkpt>
      <trkpt lat="44.38199" lon="4.21388">
        <ele>124</ele>
        <time>2013-11-22T13:55:39Z</time>
      </trkpt>
      <trkpt lat="44.38183" lon="4.21398">
        <ele>124</ele>
        <time>2013-11-22T13:56:04Z</time>
      </trkpt>
      <trkpt lat="44.38171" lon="4.21415">
        <ele>123</ele>
        <time>2013-11-22T13:56:30Z</time>
      </trkpt>
      <trkpt lat="44.38161" lon="4.21435">
        <ele>124</ele>
        <time>2013-11-22T13:56:48Z</time>
      </trkpt>
      <trkpt lat="44.38152" lon="4.21455">
        <ele>123</ele>
        <time>2013-11-22T13:57:04Z</time>
      </trkpt>
      <trkpt lat="44.38134" lon="4.21453">
        <ele>123</ele>
        <time>2013-11-22T13:57:33Z</time>
      </trkpt>
      <trkpt lat="44.38119" lon="4.2144">
        <ele>122</ele>
        <time>2013-11-22T13:57:55Z</time>
      </trkpt>
      <trkpt lat="44.38104" lon="4.21427">
        <ele>121</ele>
        <time>2013-11-22T13:58:14Z</time>
      </trkpt>
      <trkpt lat="44.38091" lon="4.21412">
        <ele>120</ele>
        <time>2013-11-22T13:58:36Z</time>
      </trkpt>
      <trkpt lat="44.38078" lon="4.21395">
        <ele>118</ele>
        <time>2013-11-22T13:58:55Z</time>
      </trkpt>
      <trkpt lat="44.38066" lon="4.21378">
        <ele>117</ele>
        <time>2013-11-22T13:59:15Z</time>
      </trkpt>
      <trkpt lat="44.38058" lon="4.21357">
        <ele>122</ele>
        <time>2013-11-22T13:59:32Z</time>
      </trkpt>
      <trkpt lat="44.38049" lon="4.21335">
        <ele>124</ele>
        <time>2013-11-22T13:59:52Z</time>
      </trkpt>
      <trkpt lat="44.38045" lon="4.21311">
        <ele>128</ele>
        <time>2013-11-22T14:00:08Z</time>
      </trkpt>
      <trkpt lat="44.38033" lon="4.21293">
        <ele>125</ele>
        <time>2013-11-22T14:00:28Z</time>
      </trkpt>
      <trkpt lat="44.38019" lon="4.21279">
        <ele>127</ele>
        <time>2013-11-22T14:00:47Z</time>
      </trkpt>
      <trkpt lat="44.38003" lon="4.2127">
        <ele>128</ele>
        <time>2013-11-22T14:01:07Z</time>
      </trkpt>
      <trkpt lat="44.37986" lon="4.21264">
        <ele>129</ele>
        <time>2013-11-22T14:01:30Z</time>
      </trkpt>
      <trkpt lat="44.37975" lon="4.21244">
        <ele>129</ele>
        <time>2013-11-22T14:01:56Z</time>
      </trkpt>
      <trkpt lat="44.37983" lon="4.21222">
        <ele>131</ele>
        <time>2013-11-22T14:02:13Z</time>
      </trkpt>
      <trkpt lat="44.3799" lon="4.21199">
        <ele>129</ele>
        <time>2013-11-22T14:02:33Z</time>
      </trkpt>
      <trkpt lat="44.37995" lon="4.21176">
        <ele>131</ele>
        <time>2013-11-22T14:02:53Z</time>
      </trkpt>
      <trkpt lat="44.38001" lon="4.21152">
        <ele>137</ele>
        <time>2013-11-22T14:03:14Z</time>
      </trkpt>
      <trkpt lat="44.38005" lon="4.21129">
        <ele>138</ele>
        <time>2013-11-22T14:03:33Z</time>
      </trkpt>
      <trkpt lat="44.38013" lon="4.21107">
        <ele>139</ele>
        <time>2013-11-22T14:03:52Z</time>
      </trkpt>
      <trkpt lat="44.38023" lon="4.21087">
        <ele>140</ele>
        <time>2013-11-22T14:04:13Z</time>
      </trkpt>
      <trkpt lat="44.38036" lon="4.2107">
        <ele>142</ele>
        <time>2013-11-22T14:04:35Z</time>
      </trkpt>
      <trkpt lat="44.38051" lon="4.21057">
        <ele>144</ele>
        <time>2013-11-22T14:04:59Z</time>
      </trkpt>
      <trkpt lat="44.38067" lon="4.21046">
        <ele>147</ele>
        <time>2013-11-22T14:06:41Z</time>
      </trkpt>
      <trkpt lat="44.38082" lon="4.21034">
        <ele>146</ele>
        <time>2013-11-22T14:07:05Z</time>
      </trkpt>
      <trkpt lat="44.38096" lon="4.2102">
        <ele>148</ele>
        <time>2013-11-22T14:07:27Z</time>
      </trkpt>
      <trkpt lat="44.3811" lon="4.21004">
        <ele>144</ele>
        <time>2013-11-22T14:07:49Z</time>
      </trkpt>
      <trkpt lat="44.38118" lon="4.20982">
        <ele>141</ele>
        <time>2013-11-22T14:08:11Z</time>
      </trkpt>
      <trkpt lat="44.38125" lon="4.2096">
        <ele>139</ele>
        <time>2013-11-22T14:08:33Z</time>
      </trkpt>
      <trkpt lat="44.38131" lon="4.20938">
        <ele>142</ele>
        <time>2013-11-22T14:08:49Z</time>
      </trkpt>
      <trkpt lat="44.38144" lon="4.20923">
        <ele>144</ele>
        <time>2013-11-22T14:09:04Z</time>
      </trkpt>
      <trkpt lat="44.38158" lon="4.20907">
        <ele>147</ele>
        <time>2013-11-22T14:09:20Z</time>
      </trkpt>
      <trkpt lat="44.38172" lon="4.20892">
        <ele>147</ele>
        <time>2013-11-22T14:09:42Z</time>
      </trkpt>
      <trkpt lat="44.38187" lon="4.2088">
        <ele>145</ele>
        <time>2013-11-22T14:10:01Z</time>
      </trkpt>
      <trkpt lat="44.38203" lon="4.2087">
        <ele>145</ele>
        <time>2013-11-22T14:10:18Z</time>
      </trkpt>
      <trkpt lat="44.3822" lon="4.20866">
        <ele>148</ele>
        <time>2013-11-22T14:10:38Z</time>
      </trkpt>
      <trkpt lat="44.38237" lon="4.20857">
        <ele>146</ele>
        <time>2013-11-22T14:10:59Z</time>
      </trkpt>
      <trkpt lat="44.38249" lon="4.20839">
        <ele>144</ele>
        <time>2013-11-22T14:11:22Z</time>
      </trkpt>
      <trkpt lat="44.38262" lon="4.20822">
        <ele>144</ele>
        <time>2013-11-22T14:11:42Z</time>
      </trkpt>
      <trkpt lat="44.38277" lon="4.20811">
        <ele>146</ele>
        <time>2013-11-22T14:11:56Z</time>
      </trkpt>
      <trkpt lat="44.38293" lon="4.20801">
        <ele>143</ele>
        <time>2013-11-22T14:12:17Z</time>
      </trkpt>
      <trkpt lat="44.38308" lon="4.20788">
        <ele>142</ele>
        <time>2013-11-22T14:12:39Z</time>
      </trkpt>
      <trkpt lat="44.38321" lon="4.20773">
        <ele>142</ele>
        <time>2013-11-22T14:13:03Z</time>
      </trkpt>
      <trkpt lat="44.38334" lon="4.20756">
        <ele>143</ele>
        <time>2013-11-22T14:13:24Z</time>
      </trkpt>
      <trkpt lat="44.38347" lon="4.20739">
        <ele>142</ele>
        <time>2013-11-22T14:13:46Z</time>
      </trkpt>
      <trkpt lat="44.38361" lon="4.20725">
        <ele>139</ele>
        <time>2013-11-22T14:14:05Z</time>
      </trkpt>
      <trkpt lat="44.38377" lon="4.20715">
        <ele>143</ele>
        <time>2013-11-22T14:14:20Z</time>
      </trkpt>
      <trkpt lat="44.3839" lon="4.20699">
        <ele>145</ele>
        <time>2013-11-22T14:14:39Z</time>
      </trkpt>
      <trkpt lat="44.38402" lon="4.20682">
        <ele>145</ele>
        <time>2013-11-22T14:15:01Z</time>
      </trkpt>
      <trkpt lat="44.38415" lon="4.20668">
        <ele>144</ele>
        <time>2013-11-22T14:15:20Z</time>
      </trkpt>
      <trkpt lat="44.38421" lon="4.20645">
        <ele>148</ele>
        <time>2013-11-22T14:15:40Z</time>
      </trkpt>
      <trkpt lat="44.38422" lon="4.2062">
        <ele>148</ele>
        <time>2013-11-22T14:16:06Z</time>
      </trkpt>
      <trkpt lat="44.38432" lon="4.206">
        <ele>146</ele>
        <time>2013-11-22T14:16:34Z</time>
      </trkpt>
      <trkpt lat="44.38447" lon="4.20585">
        <ele>151</ele>
        <time>2013-11-22T14:16:57Z</time>
      </trkpt>
      <trkpt lat="44.38457" lon="4.20565">
        <ele>148</ele>
        <time>2013-11-22T14:17:18Z</time>
      </trkpt>
      <trkpt lat="44.38463" lon="4.20542">
        <ele>144</ele>
        <time>2013-11-22T14:17:37Z</time>
      </trkpt>
      <trkpt lat="44.38475" lon="4.20524">
        <ele>150</ele>
        <time>2013-11-22T14:17:58Z</time>
      </trkpt>
      <trkpt lat="44.3849" lon="4.20511">
        <ele>154</ele>
        <time>2013-11-22T14:18:20Z</time>
      </trkpt>
      <trkpt lat="44.38502" lon="4.20494">
        <ele>153</ele>
        <time>2013-11-22T14:18:41Z</time>
      </trkpt>
      <trkpt lat="44.38518" lon="4.20483">
        <ele>152</ele>
        <time>2013-11-22T14:18:59Z</time>
      </trkpt>
      <trkpt lat="44.3853" lon="4.20464">
        <ele>152</ele>
        <time>2013-11-22T14:19:21Z</time>
      </trkpt>
      <trkpt lat="44.38542" lon="4.20445">
        <ele>153</ele>
        <time>2013-11-22T14:19:41Z</time>
      </trkpt>
      <trkpt lat="44.38553" lon="4.20426">
        <ele>152</ele>
        <time>2013-11-22T14:20:03Z</time>
      </trkpt>
      <trkpt lat="44.38569" lon="4.20416">
        <ele>160</ele>
        <time>2013-11-22T14:20:51Z</time>
      </trkpt>
      <trkpt lat="44.38579" lon="4.20396">
        <ele>158</ele>
        <time>2013-11-22T14:21:15Z</time>
      </trkpt>
      <trkpt lat="44.38586" lon="4.20373">
        <ele>160</ele>
        <time>2013-11-22T14:21:45Z</time>
      </trkpt>
      <trkpt lat="44.38603" lon="4.20363">
        <ele>162</ele>
        <time>2013-11-22T14:25:18Z</time>
      </trkpt>
      <trkpt lat="44.3862" lon="4.20361">
        <ele>161</ele>
        <time>2013-11-22T14:25:37Z</time>
      </trkpt>
      <trkpt lat="44.38628" lon="4.20338">
        <ele>158</ele>
        <time>2013-11-22T14:26:10Z</time>
      </trkpt>
      <trkpt lat="44.38629" lon="4.20314">
        <ele>150</ele>
        <time>2013-11-22T14:26:40Z</time>
      </trkpt>
      <trkpt lat="44.38638" lon="4.20293">
        <ele>151</ele>
        <time>2013-11-22T14:26:58Z</time>
      </trkpt>
      <trkpt lat="44.3865" lon="4.20276">
        <ele>155</ele>
        <time>2013-11-22T14:27:16Z</time>
      </trkpt>
      <trkpt lat="44.38663" lon="4.2026">
        <ele>155</ele>
        <time>2013-11-22T14:27:43Z</time>
      </trkpt>
      <trkpt lat="44.38675" lon="4.20242">
        <ele>155</ele>
        <time>2013-11-22T14:28:05Z</time>
      </trkpt>
      <trkpt lat="44.38686" lon="4.20223">
        <ele>156</ele>
        <time>2013-11-22T14:28:29Z</time>
      </trkpt>
      <trkpt lat="44.38699" lon="4.20206">
        <ele>157</ele>
        <time>2013-11-22T14:28:49Z</time>
      </trkpt>
      <trkpt lat="44.38714" lon="4.20194">
        <ele>158</ele>
        <time>2013-11-22T14:29:13Z</time>
      </trkpt>
      <trkpt lat="44.38726" lon="4.20176">
        <ele>158</ele>
        <time>2013-11-22T14:29:39Z</time>
      </trkpt>
      <trkpt lat="44.38733" lon="4.20153">
        <ele>156</ele>
        <time>2013-11-22T14:30:02Z</time>
      </trkpt>
      <trkpt lat="44.38737" lon="4.20129">
        <ele>158</ele>
        <time>2013-11-22T14:30:25Z</time>
      </trkpt>
      <trkpt lat="44.38745" lon="4.20107">
        <ele>160</ele>
        <time>2013-11-22T14:30:50Z</time>
      </trkpt>
      <trkpt lat="44.38754" lon="4.20086">
        <ele>160</ele>
        <time>2013-11-22T14:31:15Z</time>
      </trkpt>
      <trkpt lat="44.38762" lon="4.20064">
        <ele>161</ele>
        <time>2013-11-22T14:31:39Z</time>
      </trkpt>
      <trkpt lat="44.38771" lon="4.20043">
        <ele>160</ele>
        <time>2013-11-22T14:32:01Z</time>
      </trkpt>
      <trkpt lat="44.38777" lon="4.2002">
        <ele>161</ele>
        <time>2013-11-22T14:32:23Z</time>
      </trkpt>
      <trkpt lat="44.38787" lon="4.19999">
        <ele>162</ele>
        <time>2013-11-22T14:32:46Z</time>
      </trkpt>
      <trkpt lat="44.38798" lon="4.1998">
        <ele>163</ele>
        <time>2013-11-22T14:33:10Z</time>
      </trkpt>
      <trkpt lat="44.38806" lon="4.19958">
        <ele>162</ele>
        <time>2013-11-22T14:33:35Z</time>
      </trkpt>
      <trkpt lat="44.38817" lon="4.19938">
        <ele>162</ele>
        <time>2013-11-22T14:34:00Z</time>
      </trkpt>
      <trkpt lat="44.38826" lon="4.19917">
        <ele>162</ele>
        <time>2013-11-22T14:34:23Z</time>
      </trkpt>
      <trkpt lat="44.38834" lon="4.19896">
        <ele>162</ele>
        <time>2013-11-22T14:34:46Z</time>
      </trkpt>
      <trkpt lat="44.38842" lon="4.19874">
        <ele>163</ele>
        <time>2013-11-22T14:35:09Z</time>
      </trkpt>
      <trkpt lat="44.3885" lon="4.19852">
        <ele>162</ele>
        <time>2013-11-22T14:35:31Z</time>
      </trkpt>
      <trkpt lat="44.38859" lon="4.19831">
        <ele>164</ele>
        <time>2013-11-22T14:35:53Z</time>
      </trkpt>
      <trkpt lat="44.38866" lon="4.19808">
        <ele>166</ele>
        <time>2013-11-22T14:36:14Z</time>
      </trkpt>
      <trkpt lat="44.38875" lon="4.19786">
        <ele>166</ele>
        <time>2013-11-22T14:36:35Z</time>
      </trkpt>
      <trkpt lat="44.38881" lon="4.19764">
        <ele>166</ele>
        <time>2013-11-22T14:36:54Z</time>
      </trkpt>
      <trkpt lat="44.38886" lon="4.1974">
        <ele>167</ele>
        <time>2013-11-22T14:37:14Z</time>
      </trkpt>
      <trkpt lat="44.38896" lon="4.19719">
        <ele>168</ele>
        <time>2013-11-22T14:37:34Z</time>
      </trkpt>
      <trkpt lat="44.38903" lon="4.19696">
        <ele>166</ele>
        <time>2013-11-22T14:37:54Z</time>
      </trkpt>
      <trkpt lat="44.38908" lon="4.19672">
        <ele>167</ele>
        <time>2013-11-22T14:38:18Z</time>
      </trkpt>
      <trkpt lat="44.38914" lon="4.1965">
        <ele>169</ele>
        <time>2013-11-22T14:42:07Z</time>
      </trkpt>
      <trkpt lat="44.38927" lon="4.19632">
        <ele>166</ele>
        <time>2013-11-22T14:42:28Z</time>
      </trkpt>
      <trkpt lat="44.38938" lon="4.19614">
        <ele>166</ele>
        <time>2013-11-22T14:42:47Z</time>
      </trkpt>
      <trkpt lat="44.3895" lon="4.19596">
        <ele>168</ele>
        <time>2013-11-22T14:43:06Z</time>
      </trkpt>
      <trkpt lat="44.38961" lon="4.19576">
        <ele>169</ele>
        <time>2013-11-22T14:43:26Z</time>
      </trkpt>
      <trkpt lat="44.38972" lon="4.19557">
        <ele>170</ele>
        <time>2013-11-22T14:43:49Z</time>
      </trkpt>
      <trkpt lat="44.38982" lon="4.19536">
        <ele>171</ele>
        <time>2013-11-22T14:44:10Z</time>
      </trkpt>
      <trkpt lat="44.38995" lon="4.1952">
        <ele>172</ele>
        <time>2013-11-22T14:44:29Z</time>
      </trkpt>
      <trkpt lat="44.39006" lon="4.195">
        <ele>174</ele>
        <time>2013-11-22T14:44:50Z</time>
      </trkpt>
      <trkpt lat="44.39015" lon="4.19479">
        <ele>176</ele>
        <time>2013-11-22T14:45:10Z</time>
      </trkpt>
      <trkpt lat="44.39027" lon="4.19461">
        <ele>175</ele>
        <time>2013-11-22T14:45:31Z</time>
      </trkpt>
      <trkpt lat="44.39045" lon="4.19456">
        <ele>170</ele>
        <time>2013-11-22T14:46:02Z</time>
      </trkpt>
      <trkpt lat="44.39062" lon="4.19455">
        <ele>168</ele>
        <time>2013-11-22T14:46:31Z</time>
      </trkpt>
      <trkpt lat="44.3908" lon="4.19458">
        <ele>166</ele>
        <time>2013-11-22T14:46:57Z</time>
      </trkpt>
      <trkpt lat="44.39098" lon="4.19458">
        <ele>171</ele>
        <time>2013-11-22T14:48:26Z</time>
      </trkpt>
      <trkpt lat="44.39114" lon="4.19447">
        <ele>174</ele>
        <time>2013-11-22T14:49:01Z</time>
      </trkpt>
      <trkpt lat="44.3911" lon="4.19472">
        <ele>175</ele>
        <time>2013-11-22T14:50:10Z</time>
      </trkpt>
      <trkpt lat="44.39126" lon="4.19483">
        <ele>182</ele>
        <time>2013-11-22T14:51:04Z</time>
      </trkpt>
      <trkpt lat="44.39138" lon="4.19467">
        <ele>183</ele>
        <time>2013-11-22T14:51:31Z</time>
      </trkpt>
      <trkpt lat="44.39151" lon="4.19449">
        <ele>180</ele>
        <time>2013-11-22T14:51:52Z</time>
      </trkpt>
      <trkpt lat="44.39164" lon="4.19434">
        <ele>182</ele>
        <time>2013-11-22T14:52:31Z</time>
      </trkpt>
      <trkpt lat="44.39176" lon="4.19416">
        <ele>183</ele>
        <time>2013-11-22T14:52:56Z</time>
      </trkpt>
      <trkpt lat="44.39188" lon="4.19398">
        <ele>183</ele>
        <time>2013-11-22T14:53:17Z</time>
      </trkpt>
      <trkpt lat="44.392" lon="4.19379">
        <ele>183</ele>
        <time>2013-11-22T14:53:38Z</time>
      </trkpt>
      <trkpt lat="44.39212" lon="4.19361">
        <ele>186</ele>
        <time>2013-11-22T14:54:01Z</time>
      </trkpt>
      <trkpt lat="44.39224" lon="4.19343">
        <ele>191</ele>
        <time>2013-11-22T14:54:25Z</time>
      </trkpt>
      <trkpt lat="44.39234" lon="4.19323">
        <ele>190</ele>
        <time>2013-11-22T14:54:51Z</time>
      </trkpt>
      <trkpt lat="44.39247" lon="4.19306">
        <ele>196</ele>
        <time>2013-11-22T14:55:15Z</time>
      </trkpt>
      <trkpt lat="44.39262" lon="4.19294">
        <ele>198</ele>
        <time>2013-11-22T14:55:40Z</time>
      </trkpt>
      <trkpt lat="44.39275" lon="4.19278">
        <ele>198</ele>
        <time>2013-11-22T14:55:59Z</time>
      </trkpt>
      <trkpt lat="44.39288" lon="4.19262">
        <ele>195</ele>
        <time>2013-11-22T14:56:21Z</time>
      </trkpt>
      <trkpt lat="44.39303" lon="4.19249">
        <ele>195</ele>
        <time>2013-11-22T14:56:40Z</time>
      </trkpt>
      <trkpt lat="44.39318" lon="4.19235">
        <ele>193</ele>
        <time>2013-11-22T14:57:01Z</time>
      </trkpt>
      <trkpt lat="44.39333" lon="4.19221">
        <ele>193</ele>
        <time>2013-11-22T14:57:19Z</time>
      </trkpt>
      <trkpt lat="44.39342" lon="4.192">
        <ele>190</ele>
        <time>2013-11-22T14:57:40Z</time>
      </trkpt>
      <trkpt lat="44.39341" lon="4.19189">
        <ele>190</ele>
        <time>2013-11-22T14:57:51Z</time>
      </trkpt>
    </trkseg>
  </trk>
</gpx>